This is the latest recevied weather packets stored in our database for station/object VE7GEL. If no packets are shown the sender has not sent any weather packets the latest 10 day(s).
| Time | Temp. | Humidity | Pressure | Rain* | Wind** | Luminosity | Snow |
|---|---|---|---|---|---|---|---|
| 1777617247 | 11.67° C | 90% | 1015.5 hPa | 0 mm | - | 0 W/m² | - |
| 1777616349 | 11.67° C | 92% | 1015.5 hPa | 0 mm | - | 0 W/m² | - |
| 1777616103 | 11.67° C | 92% | 1015.8 hPa | 0 mm | - | 0 W/m² | - |
| 1777615442 | 11.67° C | 92% | 1015.7 hPa | 0 mm | - | 0 W/m² | - |
| 1777614542 | 11.67° C | 93% | 1015.7 hPa | 0 mm | - | 0 W/m² | - |
| 1777614303 | 11.67° C | 93% | 1016 hPa | 0 mm | - | 0 W/m² | - |
| 1777613643 | 11.67° C | 93% | 1015.8 hPa | 0 mm | - | 0 W/m² | - |
| 1777612741 | 11.67° C | 92% | 1016 hPa | 0 mm | - | 0 W/m² | - |
| 1777612502 | 11.67° C | 93% | 1016.3 hPa | 0 mm | - | 0 W/m² | - |
| 1777611837 | 11.67° C | 92% | 1016.1 hPa | 0 mm | - | 0 W/m² | - |
| 1777610938 | 11.67° C | 90% | 1016.1 hPa | 0 mm | - | 0 W/m² | - |
| 1777610702 | 12.22° C | 90% | 1016.5 hPa | 0 mm | - | 0 W/m² | - |
| 1777610035 | 12.22° C | 90% | 1016.1 hPa | 0 mm | - | 0 W/m² | - |
| 1777609134 | 12.78° C | 84% | 1016.2 hPa | 0 mm | - | 0 W/m² | - |
| 1777608235 | 13.33° C | 79% | 1016.2 hPa | 0 mm | - | 0 W/m² | - |
| 1777607337 | 13.33° C | 80% | 1016.1 hPa | 0 mm | - | 0 W/m² | - |
| 1777607102 | 13.33° C | 80% | 1016.4 hPa | 0 mm | - | 0 W/m² | - |
| 1777606436 | 13.89° C | 80% | 1016 hPa | 0 mm | - | 0 W/m² | - |
| 1777605535 | 15° C | 74% | 1016 hPa | 0 mm | - | 3 W/m² | - |
| 1777604632 | 15.56° C | 71% | 1015.9 hPa | 0 mm | - | 10 W/m² | - |
| 1777603733 | 15.56° C | 72% | 1015.9 hPa | 0 mm | - | 17 W/m² | - |
| 1777603502 | 15.56° C | 72% | 1016.2 hPa | 0 mm | - | 21 W/m² | - |
| 1777602833 | 16.11° C | 69% | 1016 hPa | 0 mm | - | 31 W/m² | - |
| 1777601934 | 17.22° C | 65% | 1016.1 hPa | 0 mm | - | 65 W/m² | - |
| 1777601703 | 17.22° C | 64% | 1016.5 hPa | 0 mm | - | 87 W/m² | - |
* Rain latest hour (hover to see other rain measurements)
** Current wind speed in m/s (hover to see current wind gust speed)